sensor_id;sensor_type;location;lat;lon;timestamp;P1;durP1;ratioP1;P2;durP2;ratioP2
74821;SDS011;63353;48.702;8.884;2024-02-14T00:02:22;1999.90;;;999.90;;
74821;SDS011;63353;48.702;8.884;2024-02-14T00:04:50;1999.90;;;999.90;;
74821;SDS011;63353;48.702;8.884;2024-02-14T00:07:20;1999.90;;;999.90;;
74821;SDS011;63353;48.702;8.884;2024-02-14T00:09:46;1999.90;;;999.90;;
74821;SDS011;63353;48.702;8.884;2024-02-14T00:12:12;1999.90;;;999.90;;
74821;SDS011;63353;48.702;8.884;2024-02-14T00:14:38;1999.90;;;999.90;;
74821;SDS011;63353;48.702;8.884;2024-02-14T00:17:04;1999.90;;;999.90;;
74821;SDS011;63353;48.702;8.884;2024-02-14T00:19:31;1999.90;;;999.90;;
74821;SDS011;63353;48.702;8.884;2024-02-14T00:21:56;1999.90;;;999.90;;
74821;SDS011;63353;48.702;8.884;2024-02-14T00:24:22;1999.90;;;999.90;;
74821;SDS011;63353;48.702;8.884;2024-02-14T00:26:49;1999.90;;;999.90;;
74821;SDS011;63353;48.702;8.884;2024-02-14T00:29:17;1999.90;;;999.90;;
74821;SDS011;63353;48.702;8.884;2024-02-14T00:31:43;1999.90;;;999.90;;
74821;SDS011;63353;48.702;8.884;2024-02-14T00:34:09;1999.90;;;999.90;;
74821;SDS011;63353;48.702;8.884;2024-02-14T00:36:35;1999.90;;;999.90;;
74821;SDS011;63353;48.702;8.884;2024-02-14T00:39:01;1999.90;;;999.90;;
74821;SDS011;63353;48.702;8.884;2024-02-14T00:41:27;1999.90;;;999.90;;
74821;SDS011;63353;48.702;8.884;2024-02-14T00:43:55;1999.90;;;999.90;;
74821;SDS011;63353;48.702;8.884;2024-02-14T00:46:21;1999.90;;;999.90;;
74821;SDS011;63353;48.702;8.884;2024-02-14T00:48:47;1999.90;;;999.90;;
74821;SDS011;63353;48.702;8.884;2024-02-14T00:51:12;1999.90;;;999.90;;
74821;SDS011;63353;48.702;8.884;2024-02-14T00:53:38;1999.90;;;999.90;;
74821;SDS011;63353;48.702;8.884;2024-02-14T00:56:04;1999.90;;;999.90;;
74821;SDS011;63353;48.702;8.884;2024-02-14T00:58:30;1999.90;;;999.90;;
74821;SDS011;63353;48.702;8.884;2024-02-14T01:00:56;1999.90;;;999.90;;
74821;SDS011;63353;48.702;8.884;2024-02-14T01:03:23;1999.90;;;999.90;;
74821;SDS011;63353;48.702;8.884;2024-02-14T01:05:48;1999.90;;;999.90;;
74821;SDS011;63353;48.702;8.884;2024-02-14T01:08:14;1999.90;;;999.90;;
74821;SDS011;63353;48.702;8.884;2024-02-14T01:10:40;1999.90;;;999.90;;
74821;SDS011;63353;48.702;8.884;2024-02-14T01:13:06;1999.90;;;999.90;;
74821;SDS011;63353;48.702;8.884;2024-02-14T01:15:32;1999.90;;;999.90;;
74821;SDS011;63353;48.702;8.884;2024-02-14T01:17:58;1999.90;;;999.90;;
74821;SDS011;63353;48.702;8.884;2024-02-14T01:20:25;1999.90;;;999.90;;
74821;SDS011;63353;48.702;8.884;2024-02-14T01:22:50;1999.90;;;999.90;;
74821;SDS011;63353;48.702;8.884;2024-02-14T01:25:16;1999.90;;;999.90;;
74821;SDS011;63353;48.702;8.884;2024-02-14T01:27:42;1999.90;;;999.90;;
74821;SDS011;63353;48.702;8.884;2024-02-14T01:30:08;1999.90;;;999.90;;
74821;SDS011;63353;48.702;8.884;2024-02-14T01:32:34;1999.90;;;999.90;;
74821;SDS011;63353;48.702;8.884;2024-02-14T01:35:00;1999.90;;;999.90;;
74821;SDS011;63353;48.702;8.884;2024-02-14T01:37:26;1999.90;;;999.90;;
74821;SDS011;63353;48.702;8.884;2024-02-14T01:39:54;1999.90;;;999.90;;
74821;SDS011;63353;48.702;8.884;2024-02-14T01:42:20;1999.90;;;999.90;;
74821;SDS011;63353;48.702;8.884;2024-02-14T01:44:45;1999.90;;;999.90;;
74821;SDS011;63353;48.702;8.884;2024-02-14T01:47:11;1999.90;;;999.90;;
74821;SDS011;63353;48.702;8.884;2024-02-14T01:49:38;1999.90;;;999.90;;
74821;SDS011;63353;48.702;8.884;2024-02-14T01:52:03;1999.90;;;999.90;;
74821;SDS011;63353;48.702;8.884;2024-02-14T01:54:30;1999.90;;;999.90;;
74821;SDS011;63353;48.702;8.884;2024-02-14T01:56:56;1999.90;;;999.90;;
74821;SDS011;63353;48.702;8.884;2024-02-14T01:59:24;1999.90;;;999.90;;
74821;SDS011;63353;48.702;8.884;2024-02-14T02:01:50;1999.90;;;999.90;;
74821;SDS011;63353;48.702;8.884;2024-02-14T02:04:19;1999.90;;;999.90;;
74821;SDS011;63353;48.702;8.884;2024-02-14T02:06:46;1999.90;;;999.90;;
74821;SDS011;63353;48.702;8.884;2024-02-14T02:09:11;1999.90;;;999.90;;
74821;SDS011;63353;48.702;8.884;2024-02-14T02:11:47;1999.90;;;999.90;;
74821;SDS011;63353;48.702;8.884;2024-02-14T02:14:14;1999.90;;;999.90;;
74821;SDS011;63353;48.702;8.884;2024-02-14T02:16:40;1999.90;;;999.90;;
74821;SDS011;63353;48.702;8.884;2024-02-14T02:19:06;1999.90;;;999.90;;
74821;SDS011;63353;48.702;8.884;2024-02-14T02:21:34;1999.90;;;999.90;;
74821;SDS011;63353;48.702;8.884;2024-02-14T02:24:00;1999.90;;;999.90;;
74821;SDS011;63353;48.702;8.884;2024-02-14T02:26:27;1999.90;;;999.90;;
74821;SDS011;63353;48.702;8.884;2024-02-14T02:28:54;1999.90;;;999.90;;
74821;SDS011;63353;48.702;8.884;2024-02-14T02:31:20;1999.90;;;999.90;;
74821;SDS011;63353;48.702;8.884;2024-02-14T02:33:46;1999.90;;;999.90;;
74821;SDS011;63353;48.702;8.884;2024-02-14T02:36:12;1999.90;;;999.90;;
74821;SDS011;63353;48.702;8.884;2024-02-14T02:38:38;1999.90;;;999.90;;
74821;SDS011;63353;48.702;8.884;2024-02-14T02:41:03;1999.90;;;999.90;;
74821;SDS011;63353;48.702;8.884;2024-02-14T02:43:34;1999.90;;;999.90;;
74821;SDS011;63353;48.702;8.884;2024-02-14T02:45:59;1999.90;;;999.90;;
74821;SDS011;63353;48.702;8.884;2024-02-14T02:48:25;1999.90;;;999.90;;
74821;SDS011;63353;48.702;8.884;2024-02-14T02:50:51;1999.90;;;999.90;;
74821;SDS011;63353;48.702;8.884;2024-02-14T02:53:18;1999.90;;;999.90;;
74821;SDS011;63353;48.702;8.884;2024-02-14T02:55:44;1999.90;;;999.90;;
74821;SDS011;63353;48.702;8.884;2024-02-14T02:58:10;1999.90;;;999.90;;
74821;SDS011;63353;48.702;8.884;2024-02-14T03:00:36;1999.90;;;999.90;;
74821;SDS011;63353;48.702;8.884;2024-02-14T03:03:02;1999.90;;;999.90;;
74821;SDS011;63353;48.702;8.884;2024-02-14T03:05:29;1999.90;;;999.90;;
74821;SDS011;63353;48.702;8.884;2024-02-14T03:07:58;1999.90;;;999.90;;
74821;SDS011;63353;48.702;8.884;2024-02-14T03:10:24;1999.90;;;999.90;;
74821;SDS011;63353;48.702;8.884;2024-02-14T03:12:50;1999.90;;;999.90;;
74821;SDS011;63353;48.702;8.884;2024-02-14T03:15:16;1999.90;;;999.90;;
74821;SDS011;63353;48.702;8.884;2024-02-14T03:17:43;1999.90;;;999.90;;
74821;SDS011;63353;48.702;8.884;2024-02-14T03:20:10;1999.90;;;999.90;;
74821;SDS011;63353;48.702;8.884;2024-02-14T03:22:39;1999.90;;;999.90;;
74821;SDS011;63353;48.702;8.884;2024-02-14T03:25:15;1999.90;;;999.90;;
74821;SDS011;63353;48.702;8.884;2024-02-14T03:27:42;1999.90;;;999.90;;
74821;SDS011;63353;48.702;8.884;2024-02-14T03:30:10;1999.90;;;999.90;;
74821;SDS011;63353;48.702;8.884;2024-02-14T03:32:37;1999.90;;;999.90;;
74821;SDS011;63353;48.702;8.884;2024-02-14T03:35:04;1999.90;;;999.90;;
74821;SDS011;63353;48.702;8.884;2024-02-14T03:37:29;1999.90;;;999.90;;
74821;SDS011;63353;48.702;8.884;2024-02-14T03:39:56;1999.90;;;999.90;;
74821;SDS011;63353;48.702;8.884;2024-02-14T03:42:22;1999.90;;;999.90;;
74821;SDS011;63353;48.702;8.884;2024-02-14T03:44:48;1999.90;;;999.90;;
74821;SDS011;63353;48.702;8.884;2024-02-14T03:47:13;1999.90;;;999.90;;
74821;SDS011;63353;48.702;8.884;2024-02-14T03:49:39;1999.90;;;999.90;;
74821;SDS011;63353;48.702;8.884;2024-02-14T03:52:06;1999.90;;;999.90;;
74821;SDS011;63353;48.702;8.884;2024-02-14T03:54:35;1999.90;;;999.90;;
74821;SDS011;63353;48.702;8.884;2024-02-14T03:57:02;1999.90;;;999.90;;
74821;SDS011;63353;48.702;8.884;2024-02-14T03:59:31;1999.90;;;999.90;;
74821;SDS011;63353;48.702;8.884;2024-02-14T04:01:57;1999.90;;;999.90;;
74821;SDS011;63353;48.702;8.884;2024-02-14T04:04:23;1999.90;;;999.90;;
74821;SDS011;63353;48.702;8.884;2024-02-14T04:06:49;1999.90;;;999.90;;
74821;SDS011;63353;48.702;8.884;2024-02-14T04:09:15;1999.90;;;999.90;;
74821;SDS011;63353;48.702;8.884;2024-02-14T04:11:40;1999.90;;;999.90;;
74821;SDS011;63353;48.702;8.884;2024-02-14T04:14:06;1999.90;;;999.90;;
74821;SDS011;63353;48.702;8.884;2024-02-14T04:16:32;1999.90;;;999.90;;
74821;SDS011;63353;48.702;8.884;2024-02-14T04:18:58;1999.90;;;999.90;;
74821;SDS011;63353;48.702;8.884;2024-02-14T04:21:23;1999.90;;;999.90;;
74821;SDS011;63353;48.702;8.884;2024-02-14T04:23:50;1999.90;;;999.90;;
74821;SDS011;63353;48.702;8.884;2024-02-14T04:26:19;1999.90;;;999.90;;
74821;SDS011;63353;48.702;8.884;2024-02-14T04:28:45;1999.90;;;999.90;;
74821;SDS011;63353;48.702;8.884;2024-02-14T04:31:11;1999.90;;;999.90;;
74821;SDS011;63353;48.702;8.884;2024-02-14T04:33:36;1999.90;;;999.90;;
74821;SDS011;63353;48.702;8.884;2024-02-14T04:36:02;1999.90;;;999.90;;
74821;SDS011;63353;48.702;8.884;2024-02-14T04:38:31;1999.90;;;999.90;;
74821;SDS011;63353;48.702;8.884;2024-02-14T04:40:57;1999.90;;;999.90;;
74821;SDS011;63353;48.702;8.884;2024-02-14T04:43:23;1999.90;;;999.90;;
74821;SDS011;63353;48.702;8.884;2024-02-14T04:45:51;1999.90;;;999.90;;
74821;SDS011;63353;48.702;8.884;2024-02-14T04:48:17;1999.90;;;999.90;;
74821;SDS011;63353;48.702;8.884;2024-02-14T04:50:43;1999.90;;;999.90;;
74821;SDS011;63353;48.702;8.884;2024-02-14T04:53:08;1999.90;;;999.90;;
74821;SDS011;63353;48.702;8.884;2024-02-14T04:55:34;1999.90;;;999.90;;
74821;SDS011;63353;48.702;8.884;2024-02-14T04:58:00;1999.90;;;999.90;;
74821;SDS011;63353;48.702;8.884;2024-02-14T05:00:26;1999.90;;;999.90;;
74821;SDS011;63353;48.702;8.884;2024-02-14T05:02:53;1999.90;;;999.90;;
74821;SDS011;63353;48.702;8.884;2024-02-14T05:05:24;1999.90;;;999.90;;
74821;SDS011;63353;48.702;8.884;2024-02-14T05:07:49;1999.90;;;999.90;;
74821;SDS011;63353;48.702;8.884;2024-02-14T05:10:15;1999.90;;;999.90;;
74821;SDS011;63353;48.702;8.884;2024-02-14T05:12:41;1999.90;;;999.90;;
74821;SDS011;63353;48.702;8.884;2024-02-14T05:15:06;1999.90;;;999.90;;
74821;SDS011;63353;48.702;8.884;2024-02-14T05:17:34;1999.90;;;999.90;;
74821;SDS011;63353;48.702;8.884;2024-02-14T05:20:00;1999.90;;;999.90;;
74821;SDS011;63353;48.702;8.884;2024-02-14T05:22:25;1999.90;;;999.90;;
74821;SDS011;63353;48.702;8.884;2024-02-14T05:24:52;1999.90;;;999.90;;
74821;SDS011;63353;48.702;8.884;2024-02-14T05:27:18;1999.90;;;999.90;;
74821;SDS011;63353;48.702;8.884;2024-02-14T05:29:44;1999.90;;;999.90;;
74821;SDS011;63353;48.702;8.884;2024-02-14T05:32:10;1999.90;;;999.90;;
74821;SDS011;63353;48.702;8.884;2024-02-14T05:34:35;1999.90;;;999.90;;
74821;SDS011;63353;48.702;8.884;2024-02-14T05:37:01;1999.90;;;999.90;;
74821;SDS011;63353;48.702;8.884;2024-02-14T05:39:27;1999.90;;;999.90;;
74821;SDS011;63353;48.702;8.884;2024-02-14T05:41:53;1999.90;;;999.90;;
74821;SDS011;63353;48.702;8.884;2024-02-14T05:44:19;1999.90;;;999.90;;
74821;SDS011;63353;48.702;8.884;2024-02-14T05:46:46;1999.90;;;999.90;;
74821;SDS011;63353;48.702;8.884;2024-02-14T05:49:11;1999.90;;;999.90;;
74821;SDS011;63353;48.702;8.884;2024-02-14T05:51:37;1999.90;;;999.90;;
74821;SDS011;63353;48.702;8.884;2024-02-14T05:54:02;1999.90;;;999.90;;
74821;SDS011;63353;48.702;8.884;2024-02-14T05:56:28;1999.90;;;999.90;;
74821;SDS011;63353;48.702;8.884;2024-02-14T05:58:54;1999.90;;;999.90;;
74821;SDS011;63353;48.702;8.884;2024-02-14T06:01:19;1999.90;;;999.90;;
74821;SDS011;63353;48.702;8.884;2024-02-14T06:03:45;1999.90;;;999.90;;
74821;SDS011;63353;48.702;8.884;2024-02-14T06:06:11;1999.90;;;999.90;;
74821;SDS011;63353;48.702;8.884;2024-02-14T06:08:36;1999.90;;;999.90;;
74821;SDS011;63353;48.702;8.884;2024-02-14T06:11:02;1999.90;;;999.90;;
74821;SDS011;63353;48.702;8.884;2024-02-14T06:13:28;1999.90;;;999.90;;
74821;SDS011;63353;48.702;8.884;2024-02-14T06:15:53;1999.90;;;999.90;;
74821;SDS011;63353;48.702;8.884;2024-02-14T06:18:19;1999.90;;;999.90;;
74821;SDS011;63353;48.702;8.884;2024-02-14T06:20:44;1999.90;;;999.90;;
74821;SDS011;63353;48.702;8.884;2024-02-14T06:23:12;1999.90;;;999.90;;
74821;SDS011;63353;48.702;8.884;2024-02-14T06:25:40;1999.90;;;999.90;;
74821;SDS011;63353;48.702;8.884;2024-02-14T06:28:06;1999.90;;;999.90;;
74821;SDS011;63353;48.702;8.884;2024-02-14T06:30:31;1999.90;;;999.90;;
74821;SDS011;63353;48.702;8.884;2024-02-14T06:32:57;1999.90;;;999.90;;
74821;SDS011;63353;48.702;8.884;2024-02-14T06:35:25;1999.90;;;999.90;;
74821;SDS011;63353;48.702;8.884;2024-02-14T06:37:51;1999.90;;;999.90;;
74821;SDS011;63353;48.702;8.884;2024-02-14T06:40:17;1999.90;;;999.90;;
74821;SDS011;63353;48.702;8.884;2024-02-14T06:42:42;1999.90;;;999.90;;
74821;SDS011;63353;48.702;8.884;2024-02-14T06:45:08;1999.90;;;999.90;;
74821;SDS011;63353;48.702;8.884;2024-02-14T06:47:34;1999.90;;;999.90;;
74821;SDS011;63353;48.702;8.884;2024-02-14T06:50:00;1999.90;;;999.90;;
74821;SDS011;63353;48.702;8.884;2024-02-14T06:52:25;1999.90;;;999.90;;
74821;SDS011;63353;48.702;8.884;2024-02-14T06:54:51;1999.90;;;999.90;;
74821;SDS011;63353;48.702;8.884;2024-02-14T06:57:17;1999.90;;;999.90;;
74821;SDS011;63353;48.702;8.884;2024-02-14T06:59:43;1999.90;;;999.90;;
74821;SDS011;63353;48.702;8.884;2024-02-14T07:02:09;1999.90;;;999.90;;
74821;SDS011;63353;48.702;8.884;2024-02-14T07:04:35;1999.90;;;999.90;;
74821;SDS011;63353;48.702;8.884;2024-02-14T07:07:02;1999.90;;;999.90;;
74821;SDS011;63353;48.702;8.884;2024-02-14T07:09:27;1999.90;;;999.90;;
74821;SDS011;63353;48.702;8.884;2024-02-14T07:11:54;1999.90;;;999.90;;
74821;SDS011;63353;48.702;8.884;2024-02-14T07:14:21;1999.90;;;999.90;;
74821;SDS011;63353;48.702;8.884;2024-02-14T07:16:47;1999.90;;;999.90;;
74821;SDS011;63353;48.702;8.884;2024-02-14T07:19:13;1999.90;;;999.90;;
74821;SDS011;63353;48.702;8.884;2024-02-14T07:21:39;1999.90;;;999.90;;
74821;SDS011;63353;48.702;8.884;2024-02-14T07:24:05;1999.90;;;999.90;;
74821;SDS011;63353;48.702;8.884;2024-02-14T07:26:30;1999.90;;;999.90;;
74821;SDS011;63353;48.702;8.884;2024-02-14T07:28:56;1999.90;;;999.90;;
74821;SDS011;63353;48.702;8.884;2024-02-14T07:31:22;1999.90;;;999.90;;
74821;SDS011;63353;48.702;8.884;2024-02-14T07:33:53;1999.90;;;999.90;;
74821;SDS011;63353;48.702;8.884;2024-02-14T07:36:19;1999.90;;;999.90;;
74821;SDS011;63353;48.702;8.884;2024-02-14T07:38:44;1999.90;;;999.90;;
74821;SDS011;63353;48.702;8.884;2024-02-14T07:41:10;1999.90;;;999.90;;
74821;SDS011;63353;48.702;8.884;2024-02-14T07:43:35;1999.90;;;999.90;;
74821;SDS011;63353;48.702;8.884;2024-02-14T07:46:01;1999.90;;;999.90;;
74821;SDS011;63353;48.702;8.884;2024-02-14T07:48:27;1999.90;;;999.90;;
74821;SDS011;63353;48.702;8.884;2024-02-14T07:50:53;1999.90;;;999.90;;
74821;SDS011;63353;48.702;8.884;2024-02-14T07:53:18;1999.90;;;999.90;;
74821;SDS011;63353;48.702;8.884;2024-02-14T07:55:44;1999.90;;;999.90;;
74821;SDS011;63353;48.702;8.884;2024-02-14T07:58:09;1999.90;;;999.90;;
74821;SDS011;63353;48.702;8.884;2024-02-14T08:00:36;1999.90;;;999.90;;
74821;SDS011;63353;48.702;8.884;2024-02-14T08:03:01;1405.23;;;733.33;;
74821;SDS011;63353;48.702;8.884;2024-02-14T08:05:28;1999.90;;;999.90;;
74821;SDS011;63353;48.702;8.884;2024-02-14T08:07:54;487.80;;;453.87;;
74821;SDS011;63353;48.702;8.884;2024-02-14T08:10:20;765.97;;;717.87;;
74821;SDS011;63353;48.702;8.884;2024-02-14T08:12:45;525.23;;;499.10;;
74821;SDS011;63353;48.702;8.884;2024-02-14T08:15:12;391.27;;;373.40;;
74821;SDS011;63353;48.702;8.884;2024-02-14T08:17:38;180.33;;;172.93;;
74821;SDS011;63353;48.702;8.884;2024-02-14T08:20:04;331.57;;;316.80;;
74821;SDS011;63353;48.702;8.884;2024-02-14T08:22:30;356.90;;;340.30;;
74821;SDS011;63353;48.702;8.884;2024-02-14T08:24:57;415.27;;;395.73;;
74821;SDS011;63353;48.702;8.884;2024-02-14T08:27:23;384.60;;;366.93;;
74821;SDS011;63353;48.702;8.884;2024-02-14T08:29:48;401.47;;;383.67;;
74821;SDS011;63353;48.702;8.884;2024-02-14T08:32:14;373.57;;;356.40;;
74821;SDS011;63353;48.702;8.884;2024-02-14T08:34:40;393.27;;;375.50;;
74821;SDS011;63353;48.702;8.884;2024-02-14T08:37:06;525.03;;;499.23;;
74821;SDS011;63353;48.702;8.884;2024-02-14T08:39:33;415.93;;;397.43;;
74821;SDS011;63353;48.702;8.884;2024-02-14T08:41:59;592.47;;;562.60;;
74821;SDS011;63353;48.702;8.884;2024-02-14T08:44:32;580.83;;;551.07;;
74821;SDS011;63353;48.702;8.884;2024-02-14T08:47:02;535.83;;;509.67;;
74821;SDS011;63353;48.702;8.884;2024-02-14T08:49:28;658.63;;;623.33;;
74821;SDS011;63353;48.702;8.884;2024-02-14T08:51:54;474.77;;;452.23;;
74821;SDS011;63353;48.702;8.884;2024-02-14T08:54:20;347.93;;;332.73;;
74821;SDS011;63353;48.702;8.884;2024-02-14T08:56:46;213.97;;;204.80;;
74821;SDS011;63353;48.702;8.884;2024-02-14T08:59:12;215.17;;;206.27;;
74821;SDS011;63353;48.702;8.884;2024-02-14T09:01:38;195.53;;;187.43;;
74821;SDS011;63353;48.702;8.884;2024-02-14T09:04:03;179.00;;;171.50;;
74821;SDS011;63353;48.702;8.884;2024-02-14T09:06:29;201.17;;;192.97;;
74821;SDS011;63353;48.702;8.884;2024-02-14T09:08:55;231.10;;;221.90;;
74821;SDS011;63353;48.702;8.884;2024-02-14T09:11:21;237.87;;;228.27;;
74821;SDS011;63353;48.702;8.884;2024-02-14T09:13:48;353.00;;;338.07;;
74821;SDS011;63353;48.702;8.884;2024-02-14T09:16:16;282.43;;;270.87;;
74821;SDS011;63353;48.702;8.884;2024-02-14T09:18:41;273.07;;;261.83;;
74821;SDS011;63353;48.702;8.884;2024-02-14T09:21:09;248.27;;;238.40;;
74821;SDS011;63353;48.702;8.884;2024-02-14T09:23:35;228.37;;;219.07;;
74821;SDS011;63353;48.702;8.884;2024-02-14T09:26:04;209.67;;;201.27;;
74821;SDS011;63353;48.702;8.884;2024-02-14T09:28:29;192.67;;;184.73;;
74821;SDS011;63353;48.702;8.884;2024-02-14T09:30:55;157.33;;;151.03;;
74821;SDS011;63353;48.702;8.884;2024-02-14T09:33:21;166.50;;;159.73;;
74821;SDS011;63353;48.702;8.884;2024-02-14T09:35:46;120.40;;;115.40;;
74821;SDS011;63353;48.702;8.884;2024-02-14T09:38:13;102.80;;;98.63;;
74821;SDS011;63353;48.702;8.884;2024-02-14T09:40:42;119.43;;;114.77;;
74821;SDS011;63353;48.702;8.884;2024-02-14T09:43:22;78.07;;;74.60;;
74821;SDS011;63353;48.702;8.884;2024-02-14T09:46:01;72.33;;;69.33;;
74821;SDS011;63353;48.702;8.884;2024-02-14T09:48:28;68.87;;;66.13;;
74821;SDS011;63353;48.702;8.884;2024-02-14T09:50:55;114.13;;;109.47;;
74821;SDS011;63353;48.702;8.884;2024-02-14T09:53:22;69.57;;;66.73;;
74821;SDS011;63353;48.702;8.884;2024-02-14T09:55:49;66.97;;;64.00;;
74821;SDS011;63353;48.702;8.884;2024-02-14T09:58:15;83.17;;;79.77;;
74821;SDS011;63353;48.702;8.884;2024-02-14T10:00:42;576.07;;;542.00;;
74821;SDS011;63353;48.702;8.884;2024-02-14T10:03:08;132.57;;;126.90;;
74821;SDS011;63353;48.702;8.884;2024-02-14T10:05:34;31.30;;;29.80;;
74821;SDS011;63353;48.702;8.884;2024-02-14T10:08:00;8.73;;;8.23;;
74821;SDS011;63353;48.702;8.884;2024-02-14T10:10:26;549.40;;;519.13;;
74821;SDS011;63353;48.702;8.884;2024-02-14T10:12:54;848.00;;;793.53;;
74821;SDS011;63353;48.702;8.884;2024-02-14T10:15:21;920.23;;;860.57;;
74821;SDS011;63353;48.702;8.884;2024-02-14T10:17:47;1043.73;;;965.03;;
74821;SDS011;63353;48.702;8.884;2024-02-14T10:20:16;1032.53;;;956.93;;
74821;SDS011;63353;48.702;8.884;2024-02-14T10:22:42;975.80;;;907.67;;
74821;SDS011;63353;48.702;8.884;2024-02-14T10:25:09;1047.67;;;969.53;;
74821;SDS011;63353;48.702;8.884;2024-02-14T10:27:36;1029.97;;;954.63;;
74821;SDS011;63353;48.702;8.884;2024-02-14T10:30:06;1073.07;;;991.10;;
74821;SDS011;63353;48.702;8.884;2024-02-14T10:32:34;1068.43;;;986.53;;
74821;SDS011;63353;48.702;8.884;2024-02-14T10:35:02;1047.03;;;969.00;;
74821;SDS011;63353;48.702;8.884;2024-02-14T10:37:30;997.00;;;925.83;;
74821;SDS011;63353;48.702;8.884;2024-02-14T10:39:56;953.30;;;887.67;;
74821;SDS011;63353;48.702;8.884;2024-02-14T10:42:27;1048.93;;;970.50;;
74821;SDS011;63353;48.702;8.884;2024-02-14T10:44:54;1083.83;;;999.10;;
74821;SDS011;63353;48.702;8.884;2024-02-14T10:47:20;873.60;;;817.03;;
74821;SDS011;63353;48.702;8.884;2024-02-14T10:49:49;1072.43;;;990.40;;
74821;SDS011;63353;48.702;8.884;2024-02-14T10:52:17;1052.73;;;973.33;;
74821;SDS011;63353;48.702;8.884;2024-02-14T10:54:47;1062.03;;;981.77;;
74821;SDS011;63353;48.702;8.884;2024-02-14T10:57:24;1050.43;;;972.10;;
74821;SDS011;63353;48.702;8.884;2024-02-14T10:59:50;1050.77;;;971.87;;
74821;SDS011;63353;48.702;8.884;2024-02-14T11:02:17;1069.57;;;988.20;;
74821;SDS011;63353;48.702;8.884;2024-02-14T11:04:45;1058.93;;;977.03;;
74821;SDS011;63353;48.702;8.884;2024-02-14T11:07:11;1054.70;;;975.57;;
74821;SDS011;63353;48.702;8.884;2024-02-14T11:09:38;1049.73;;;970.37;;
74821;SDS011;63353;48.702;8.884;2024-02-14T11:12:08;1006.40;;;934.53;;
74821;SDS011;63353;48.702;8.884;2024-02-14T11:14:35;795.77;;;747.77;;
74821;SDS011;63353;48.702;8.884;2024-02-14T11:17:04;924.37;;;863.47;;
74821;SDS011;63353;48.702;8.884;2024-02-14T11:19:34;932.97;;;871.33;;
74821;SDS011;63353;48.702;8.884;2024-02-14T11:22:09;1002.97;;;932.23;;
74821;SDS011;63353;48.702;8.884;2024-02-14T11:24:42;904.63;;;845.33;;
74821;SDS011;63353;48.702;8.884;2024-02-14T11:27:11;1002.73;;;931.47;;
74821;SDS011;63353;48.702;8.884;2024-02-14T11:29:40;840.77;;;788.00;;
74821;SDS011;63353;48.702;8.884;2024-02-14T11:32:15;707.37;;;665.40;;
74821;SDS011;63353;48.702;8.884;2024-02-14T11:34:43;1066.50;;;985.17;;
74821;SDS011;63353;48.702;8.884;2024-02-14T11:37:09;1098.00;;;999.90;;
74821;SDS011;63353;48.702;8.884;2024-02-14T11:39:35;1022.90;;;948.10;;
74821;SDS011;63353;48.702;8.884;2024-02-14T11:42:01;1063.03;;;981.23;;
74821;SDS011;63353;48.702;8.884;2024-02-14T11:44:27;1049.57;;;969.43;;
74821;SDS011;63353;48.702;8.884;2024-02-14T11:46:53;1999.90;;;999.90;;
74821;SDS011;63353;48.702;8.884;2024-02-14T11:49:19;1999.90;;;999.90;;
74821;SDS011;63353;48.702;8.884;2024-02-14T11:51:46;1999.90;;;999.90;;
74821;SDS011;63353;48.702;8.884;2024-02-14T11:54:13;1999.90;;;999.90;;
74821;SDS011;63353;48.702;8.884;2024-02-14T11:56:38;1999.90;;;999.90;;
74821;SDS011;63353;48.702;8.884;2024-02-14T11:59:08;1999.90;;;999.90;;
74821;SDS011;63353;48.702;8.884;2024-02-14T12:01:37;1999.90;;;999.90;;
74821;SDS011;63353;48.702;8.884;2024-02-14T12:04:04;1447.53;;;774.90;;
74821;SDS011;63353;48.702;8.884;2024-02-14T12:06:34;1999.90;;;999.90;;
74821;SDS011;63353;48.702;8.884;2024-02-14T12:09:04;1999.90;;;999.90;;
74821;SDS011;63353;48.702;8.884;2024-02-14T12:11:33;436.00;;;411.80;;
74821;SDS011;63353;48.702;8.884;2024-02-14T12:14:05;1999.90;;;999.90;;
74821;SDS011;63353;48.702;8.884;2024-02-14T12:16:33;1999.90;;;999.90;;
74821;SDS011;63353;48.702;8.884;2024-02-14T12:21:37;1999.90;;;999.90;;
74821;SDS011;63353;48.702;8.884;2024-02-14T12:24:04;1999.90;;;999.90;;
74821;SDS011;63353;48.702;8.884;2024-02-14T12:26:35;1999.90;;;999.90;;
74821;SDS011;63353;48.702;8.884;2024-02-14T12:29:02;1999.90;;;999.90;;
74821;SDS011;63353;48.702;8.884;2024-02-14T12:31:29;720.63;;;676.90;;
74821;SDS011;63353;48.702;8.884;2024-02-14T12:33:58;1510.03;;;833.90;;
74821;SDS011;63353;48.702;8.884;2024-02-14T12:36:26;807.73;;;757.83;;
74821;SDS011;63353;48.702;8.884;2024-02-14T12:38:53;806.77;;;756.53;;
74821;SDS011;63353;48.702;8.884;2024-02-14T12:41:19;1519.20;;;842.97;;
74821;SDS011;63353;48.702;8.884;2024-02-14T12:43:45;787.70;;;740.33;;
74821;SDS011;63353;48.702;8.884;2024-02-14T12:46:10;897.50;;;840.87;;
74821;SDS011;63353;48.702;8.884;2024-02-14T12:48:36;953.93;;;889.83;;
74821;SDS011;63353;48.702;8.884;2024-02-14T12:51:02;858.67;;;805.63;;
74821;SDS011;63353;48.702;8.884;2024-02-14T12:53:27;580.20;;;549.63;;
74821;SDS011;63353;48.702;8.884;2024-02-14T12:55:53;344.67;;;328.20;;
74821;SDS011;63353;48.702;8.884;2024-02-14T12:58:19;131.17;;;124.87;;
74821;SDS011;63353;48.702;8.884;2024-02-14T13:00:45;161.70;;;154.50;;
74821;SDS011;63353;48.702;8.884;2024-02-14T13:03:11;715.93;;;677.70;;
74821;SDS011;63353;48.702;8.884;2024-02-14T13:05:37;681.50;;;645.13;;
74821;SDS011;63353;48.702;8.884;2024-02-14T13:08:04;944.90;;;883.00;;
74821;SDS011;63353;48.702;8.884;2024-02-14T13:10:30;974.03;;;907.60;;
74821;SDS011;63353;48.702;8.884;2024-02-14T13:12:56;919.60;;;860.60;;
74821;SDS011;63353;48.702;8.884;2024-02-14T13:15:22;978.50;;;911.77;;
74821;SDS011;63353;48.702;8.884;2024-02-14T13:17:48;966.77;;;902.03;;
74821;SDS011;63353;48.702;8.884;2024-02-14T13:20:14;976.03;;;909.70;;
74821;SDS011;63353;48.702;8.884;2024-02-14T13:22:43;981.43;;;914.17;;
74821;SDS011;63353;48.702;8.884;2024-02-14T13:25:09;974.27;;;908.53;;
74821;SDS011;63353;48.702;8.884;2024-02-14T13:27:35;955.43;;;891.73;;
74821;SDS011;63353;48.702;8.884;2024-02-14T13:30:03;939.80;;;878.37;;
74821;SDS011;63353;48.702;8.884;2024-02-14T13:32:30;867.43;;;814.37;;
74821;SDS011;63353;48.702;8.884;2024-02-14T13:34:55;976.80;;;911.27;;
74821;SDS011;63353;48.702;8.884;2024-02-14T13:37:21;972.97;;;907.50;;
74821;SDS011;63353;48.702;8.884;2024-02-14T13:39:48;950.87;;;887.97;;
74821;SDS011;63353;48.702;8.884;2024-02-14T13:42:14;953.60;;;889.87;;
74821;SDS011;63353;48.702;8.884;2024-02-14T13:44:39;971.33;;;905.93;;
74821;SDS011;63353;48.702;8.884;2024-02-14T13:47:05;964.37;;;899.73;;
74821;SDS011;63353;48.702;8.884;2024-02-14T13:49:31;973.23;;;907.30;;